createdAt,value
2019-02-06T00:00:52.231Z,102350.61
2019-02-06T00:02:17.408Z,102357.19
2019-02-06T00:04:01.984Z,102355.98
2019-02-06T00:05:47.151Z,102359.97
2019-02-06T00:07:11.294Z,102352.19
2019-02-06T00:08:16.361Z,102354.47
2019-02-06T00:11:26.876Z,102350.97
2019-02-06T00:12:50.893Z,102349.73
2019-02-06T00:13:55.894Z,102350.22
2019-02-06T00:15:00.906Z,102355.48
2019-02-06T00:16:47.676Z,102356.01
2019-02-06T00:18:11.788Z,102358.19
2019-02-06T00:19:37.831Z,102356.45
2019-02-06T00:20:44.471Z,102350.40
2019-02-06T00:21:49.795Z,102354.38
2019-02-06T00:23:13.995Z,102355.77
2019-02-06T00:24:38.053Z,102352.20
2019-02-06T00:26:02.194Z,102350.02
2019-02-06T00:27:47.303Z,102356.16
2019-02-06T00:29:11.471Z,102350.50
2019-02-06T00:32:20.146Z,102343.96
2019-02-06T00:33:25.219Z,102342.23
2019-02-06T00:34:51.170Z,102338.35
2019-02-06T00:36:15.253Z,102335.27
2019-02-06T00:37:39.335Z,102337.38
2019-02-06T00:39:04.178Z,102331.70
2019-02-06T00:40:48.793Z,102336.48
2019-02-06T00:41:53.910Z,102332.56
2019-02-06T00:43:18.223Z,102327.37
2019-02-06T00:46:29.734Z,102331.81
2019-02-06T00:47:35.166Z,102334.09
2019-02-06T00:48:41.881Z,102339.43
2019-02-06T00:50:05.998Z,102339.88
2019-02-06T00:51:30.277Z,102336.84
2019-02-06T00:52:35.387Z,102336.88
2019-02-06T00:53:40.688Z,102333.41
2019-02-06T00:54:45.663Z,102334.24
2019-02-06T00:56:30.834Z,102334.24
2019-02-06T00:57:55.239Z,102338.19
2019-02-06T00:59:19.401Z,102330.78
2019-02-06T01:01:04.661Z,102325.03
2019-02-06T01:02:21.943Z,102324.20
2019-02-06T01:03:46.122Z,102320.28
2019-02-06T01:05:10.399Z,102324.30
2019-02-06T01:06:34.600Z,102323.82
2019-02-06T01:07:39.761Z,102323.89
2019-02-06T01:08:46.550Z,102311.59
2019-02-06T01:10:11.029Z,102314.68
2019-02-06T01:11:35.074Z,102313.30
2019-02-06T01:14:42.361Z,102305.92
2019-02-06T01:17:17.577Z,102308.20
2019-02-06T01:20:47.125Z,102314.44
2019-02-06T01:22:11.288Z,102317.91
2019-02-06T01:23:16.541Z,102316.25
2019-02-06T01:28:10.020Z,102315.83
2019-02-06T01:29:36.137Z,102318.12
2019-02-06T01:32:44.889Z,102316.49
2019-02-06T01:34:10.931Z,102319.61
2019-02-06T01:35:55.535Z,102321.37
2019-02-06T01:37:19.557Z,102322.69
2019-02-06T01:38:24.610Z,102313.52
2019-02-06T01:41:12.926Z,102308.70
2019-02-06T01:42:18.291Z,102310.98
2019-02-06T01:43:42.599Z,102314.08
2019-02-06T01:44:47.595Z,102312.76
2019-02-06T01:45:52.690Z,102309.30
2019-02-06T01:46:57.825Z,102314.94
2019-02-06T01:48:02.821Z,102311.41
2019-02-06T01:49:07.814Z,102310.09
2019-02-06T01:50:52.416Z,102311.75
2019-02-06T01:52:16.784Z,102308.67
2019-02-06T01:53:40.822Z,102305.17
2019-02-06T01:55:05.206Z,102301.30
2019-02-06T01:56:29.375Z,102301.67
2019-02-06T01:57:34.403Z,102306.48
2019-02-06T01:58:58.577Z,102296.86
2019-02-06T02:00:43.442Z,102295.97
2019-02-06T02:02:07.586Z,102300.33
2019-02-06T02:03:52.318Z,102304.72
2019-02-06T02:05:29.891Z,102310.44
2019-02-06T02:06:54.039Z,102305.17
2019-02-06T02:07:59.019Z,102296.86
2019-02-06T02:11:13.517Z,102295.09
2019-02-06T02:12:58.079Z,102291.15
2019-02-06T02:14:42.683Z,102287.62
2019-02-06T02:15:47.742Z,102280.63
2019-02-06T02:16:52.812Z,102279.73
2019-02-06T02:17:57.854Z,102279.31
2019-02-06T02:19:02.915Z,102280.63
2019-02-06T02:22:15.024Z,102275.36
2019-02-06T02:25:44.114Z,102270.93
2019-02-06T02:27:10.123Z,102260.52
2019-02-06T02:28:54.721Z,102264.05
2019-02-06T02:33:48.792Z,102251.45
2019-02-06T02:35:15.319Z,102246.74
2019-02-06T02:36:20.367Z,102241.06
2019-02-06T02:37:25.730Z,102235.42
2019-02-06T02:38:31.023Z,102241.55
2019-02-06T02:39:55.241Z,102239.75
2019-02-06T02:42:51.240Z,102233.25
2019-02-06T02:43:56.436Z,102236.67
2019-02-06T02:45:20.979Z,102223.97
2019-02-06T02:46:45.264Z,102227.91
2019-02-06T02:48:09.467Z,102227.42
2019-02-06T02:49:33.624Z,102216.94
2019-02-06T02:50:38.730Z,102221.75
2019-02-06T02:52:03.298Z,102225.24
2019-02-06T02:53:27.441Z,102219.53
2019-02-06T02:54:32.781Z,102215.59
2019-02-06T02:56:18.025Z,102219.42
2019-02-06T02:57:42.097Z,102218.90
2019-02-06T02:58:47.162Z,102216.27
2019-02-06T03:02:34.506Z,102211.88
2019-02-06T03:04:17.799Z,102219.72
2019-02-06T03:05:26.578Z,102208.38
2019-02-06T03:06:50.701Z,102204.95
2019-02-06T03:08:08.066Z,102201.05
2019-02-06T03:09:53.021Z,102200.18
2019-02-06T03:10:57.957Z,102205.44
2019-02-06T03:12:22.374Z,102195.41
2019-02-06T03:13:46.363Z,102197.17
2019-02-06T03:15:10.615Z,102196.75
2019-02-06T03:16:55.845Z,102193.71
2019-02-06T03:18:20.019Z,102193.33
2019-02-06T03:19:44.033Z,102190.73
2019-02-06T03:21:08.229Z,102192.13
2019-02-06T03:22:32.999Z,102183.41
2019-02-06T03:24:17.542Z,102182.50
2019-02-06T03:25:22.697Z,102186.53
2019-02-06T03:26:27.854Z,102184.80
2019-02-06T03:27:52.017Z,102179.95
2019-02-06T03:29:37.132Z,102180.78
2019-02-06T03:32:44.428Z,102186.45
2019-02-06T03:34:08.576Z,102186.86
2019-02-06T03:36:58.285Z,102193.44
2019-02-06T03:38:03.685Z,102190.81
2019-02-06T03:40:54.145Z,102193.44
2019-02-06T03:42:18.294Z,102189.87
2019-02-06T03:43:42.559Z,102189.50
2019-02-06T03:45:06.713Z,102189.42
2019-02-06T03:46:52.004Z,102189.50
2019-02-06T03:48:16.808Z,102183.48
2019-02-06T03:49:21.835Z,102176.05
2019-02-06T03:50:26.841Z,102183.07
2019-02-06T03:51:51.213Z,102188.30
2019-02-06T03:52:56.344Z,102176.98
2019-02-06T03:54:20.692Z,102173.87
2019-02-06T03:56:05.871Z,102174.28
2019-02-06T03:59:13.363Z,102169.39
2019-02-06T04:01:42.695Z,102168.11
2019-02-06T04:03:07.001Z,102173.83
2019-02-06T04:04:31.161Z,102162.44
2019-02-06T04:05:55.570Z,102165.48
2019-02-06T04:07:01.355Z,102164.61
2019-02-06T04:08:46.214Z,102161.12
2019-02-06T04:10:03.194Z,102162.03
2019-02-06T04:13:12.121Z,102162.97
2019-02-06T04:14:36.225Z,102157.36
2019-02-06T04:16:00.376Z,102161.77
2019-02-06T04:17:05.486Z,102160.03
2019-02-06T04:18:10.595Z,102154.77
2019-02-06T04:19:34.709Z,102153.91
2019-02-06T04:20:58.838Z,102158.30
2019-02-06T04:22:22.992Z,102150.94
2019-02-06T04:23:47.096Z,102154.02
2019-02-06T04:25:11.323Z,102153.16
2019-02-06T04:26:35.479Z,102157.55
2019-02-06T04:28:20.703Z,102143.16
2019-02-06T04:29:44.860Z,102140.53
2019-02-06T04:31:09.017Z,102138.34
2019-02-06T04:32:54.263Z,102138.31
2019-02-06T04:34:18.678Z,102135.68
2019-02-06T04:36:47.969Z,102134.74
2019-02-06T04:37:52.953Z,102130.00
2019-02-06T04:39:17.305Z,102127.79
2019-02-06T04:41:01.946Z,102124.67
2019-02-06T04:42:26.482Z,102138.69
2019-02-06T04:43:50.579Z,102130.80
2019-02-06T04:45:55.376Z,102128.62
2019-02-06T04:47:00.757Z,102131.21
2019-02-06T04:48:45.373Z,102125.53
2019-02-06T04:51:33.656Z,102128.58
2019-02-06T04:52:38.746Z,102125.05
2019-02-06T04:54:02.950Z,102132.00
2019-02-06T04:57:12.352Z,102127.16
2019-02-06T04:58:17.330Z,102131.10
2019-02-06T04:59:41.388Z,102125.31
2019-02-06T05:00:46.537Z,102126.62
2019-02-06T05:02:10.648Z,102118.70
2019-02-06T05:03:36.744Z,102123.89
2019-02-06T05:05:00.950Z,102123.39
2019-02-06T05:07:49.350Z,102122.53
2019-02-06T05:08:54.750Z,102115.51
2019-02-06T05:10:18.798Z,102112.91
2019-02-06T05:11:35.794Z,102110.73
2019-02-06T05:12:41.281Z,102106.86
2019-02-06T05:14:05.546Z,102109.95
2019-02-06T05:15:50.505Z,102098.11
2019-02-06T05:17:14.877Z,102095.93
2019-02-06T05:18:41.024Z,102098.19
2019-02-06T05:19:46.119Z,102091.65
2019-02-06T05:21:10.264Z,102088.61
2019-02-06T05:22:34.721Z,102089.47
2019-02-06T05:23:39.729Z,102083.30
2019-02-06T05:25:04.196Z,102085.08
2019-02-06T05:26:28.371Z,102078.95
2019-02-06T05:27:52.604Z,102085.08
2019-02-06T05:28:57.924Z,102080.34
2019-02-06T05:30:22.278Z,102093.53
2019-02-06T05:31:46.441Z,102081.77
2019-02-06T05:33:10.922Z,102079.13
2019-02-06T05:34:35.080Z,102085.71
2019-02-06T05:35:40.155Z,102094.50
2019-02-06T05:37:32.074Z,102089.69
2019-02-06T05:39:10.921Z,102093.68
2019-02-06T05:42:19.594Z,102074.03
2019-02-06T05:43:43.759Z,102067.49
2019-02-06T05:45:49.446Z,102068.43
2019-02-06T05:47:14.373Z,102076.88
2019-02-06T05:48:19.699Z,102079.55
2019-02-06T05:51:54.066Z,102081.43
2019-02-06T05:52:59.090Z,102073.61
2019-02-06T05:54:44.582Z,102073.20
2019-02-06T05:56:08.832Z,102071.02
2019-02-06T05:57:13.928Z,102073.16
2019-02-06T06:00:43.114Z,102070.01
2019-02-06T06:01:48.501Z,102073.50
2019-02-06T06:03:12.614Z,102065.20
2019-02-06T06:05:41.740Z,102072.67
2019-02-06T06:07:07.861Z,102069.11
2019-02-06T06:08:12.946Z,102064.71
2019-02-06T06:09:18.090Z,102062.91
2019-02-06T06:10:42.171Z,102064.23
2019-02-06T06:12:06.690Z,102060.24
2019-02-06T06:13:23.338Z,102058.86
2019-02-06T06:14:47.521Z,102062.80
2019-02-06T06:15:52.957Z,102059.72
2019-02-06T06:17:17.159Z,102060.17
2019-02-06T06:20:05.726Z,102057.61
2019-02-06T06:23:13.351Z,102061.97
2019-02-06T06:24:37.705Z,102057.09
2019-02-06T06:26:01.880Z,102054.45
2019-02-06T06:27:26.018Z,102053.22
2019-02-06T06:28:50.027Z,102051.91
2019-02-06T06:30:14.183Z,102051.08
2019-02-06T06:31:38.354Z,102045.83
2019-02-06T06:34:28.071Z,102041.38
2019-02-06T06:35:52.166Z,102042.25
2019-02-06T06:37:16.328Z,102040.94
2019-02-06T06:38:40.414Z,102036.58
2019-02-06T06:39:45.591Z,102043.56
2019-02-06T06:40:50.758Z,102039.66
2019-02-06T06:41:55.996Z,102041.84
2019-02-06T06:43:20.161Z,102036.17
2019-02-06T06:45:03.774Z,102041.77
2019-02-06T06:46:28.013Z,102034.36
2019-02-06T06:47:52.392Z,102038.69
2019-02-06T06:49:16.533Z,102035.60
2019-02-06T06:51:02.016Z,102036.47
2019-02-06T06:52:26.618Z,102036.47
2019-02-06T06:53:50.799Z,102040.82
2019-02-06T06:55:15.025Z,102039.05
2019-02-06T06:57:00.254Z,102036.42
2019-02-06T06:58:24.399Z,102034.17
2019-02-06T06:59:48.865Z,102031.09
2019-02-06T07:01:15.647Z,102028.91
2019-02-06T07:02:40.271Z,102031.50
2019-02-06T07:03:45.541Z,102026.63
2019-02-06T07:05:09.728Z,102030.97
2019-02-06T07:06:14.943Z,102027.03
2019-02-06T07:07:19.944Z,102029.66
2019-02-06T07:08:25.064Z,102028.76
2019-02-06T07:09:30.086Z,102034.42
2019-02-06T07:10:54.388Z,102032.63
2019-02-06T07:13:23.634Z,102024.58
2019-02-06T07:15:00.126Z,102019.20
2019-02-06T07:16:24.289Z,102017.77
2019-02-06T07:17:48.954Z,102017.69
2019-02-06T07:18:54.285Z,102022.95
2019-02-06T07:19:59.381Z,102021.62
2019-02-06T07:21:04.386Z,102021.62
2019-02-06T07:22:28.560Z,102025.12
2019-02-06T07:25:56.796Z,102025.91
2019-02-06T07:27:01.765Z,102021.47
2019-02-06T07:28:07.078Z,102025.83
2019-02-06T07:29:12.165Z,102028.38
2019-02-06T07:32:46.911Z,102035.37
2019-02-06T07:34:10.990Z,102036.23
2019-02-06T07:35:55.709Z,102031.42
2019-02-06T07:37:19.950Z,102034.05
2019-02-06T07:38:44.166Z,102034.05
2019-02-06T07:40:08.204Z,102033.11
2019-02-06T07:41:32.435Z,102033.11
2019-02-06T07:42:37.493Z,102041.38
2019-02-06T07:44:01.694Z,102028.67
2019-02-06T07:45:07.852Z,102035.12
2019-02-06T07:46:32.023Z,102035.02
2019-02-06T07:47:56.077Z,102033.17
2019-02-06T07:49:20.948Z,102032.67
2019-02-06T07:51:06.202Z,102028.19
2019-02-06T07:52:30.224Z,102023.72
2019-02-06T07:53:54.388Z,102032.43
2019-02-06T07:57:29.504Z,102031.86
2019-02-06T07:59:14.345Z,102030.46
2019-02-06T08:00:19.763Z,102030.92
2019-02-06T08:01:43.873Z,102035.69
2019-02-06T08:03:28.512Z,102038.36
2019-02-06T08:04:52.538Z,102033.05
2019-02-06T08:06:16.671Z,102034.70
2019-02-06T08:07:21.621Z,102032.06
2019-02-06T08:13:58.942Z,102040.00
2019-02-06T08:17:01.287Z,102043.30
2019-02-06T08:18:07.349Z,102039.26
2019-02-06T08:19:12.757Z,102041.36
2019-02-06T08:24:44.919Z,102045.52
2019-02-06T08:26:09.074Z,102041.89
2019-02-06T08:30:46.300Z,102048.61
2019-02-06T08:32:12.714Z,102041.11
2019-02-06T08:35:02.686Z,102048.11
2019-02-06T08:36:08.083Z,102048.11
2019-02-06T08:37:32.176Z,102048.48
2019-02-06T08:38:47.445Z,102054.16
2019-02-06T08:40:03.502Z,102058.92
2019-02-06T08:41:27.681Z,102053.53
2019-02-06T08:42:51.780Z,102057.48
2019-02-06T08:43:56.731Z,102056.95
2019-02-06T08:45:01.753Z,102059.00
2019-02-06T08:46:06.843Z,102058.01
2019-02-06T08:47:11.869Z,102057.10
2019-02-06T08:48:36.120Z,102056.52
2019-02-06T08:51:24.298Z,102060.67
2019-02-06T08:52:48.539Z,102060.55
2019-02-06T08:54:12.593Z,102060.55
2019-02-06T08:55:58.351Z,102060.05
2019-02-06T08:57:03.463Z,102056.47
2019-02-06T09:00:16.610Z,102062.92
2019-02-06T09:01:21.788Z,102058.84
2019-02-06T09:02:45.868Z,102060.57
2019-02-06T09:06:00.471Z,102059.53
2019-02-06T09:07:45.083Z,102064.72
2019-02-06T09:08:59.362Z,102049.77
2019-02-06T09:10:18.039Z,102060.72
2019-02-06T09:11:42.218Z,102056.64
2019-02-06T09:13:06.418Z,102056.55
2019-02-06T09:14:30.695Z,102056.05
2019-02-06T09:17:42.297Z,102061.92
2019-02-06T09:18:59.245Z,102057.37
2019-02-06T09:20:43.871Z,102066.93
2019-02-06T09:22:08.041Z,102065.02
2019-02-06T09:23:32.269Z,102064.84
2019-02-06T09:24:37.362Z,102064.17
2019-02-06T09:26:01.380Z,102064.12
2019-02-06T09:27:26.002Z,102068.39
2019-02-06T09:28:31.217Z,102065.09
2019-02-06T09:29:55.669Z,102061.86
2019-02-06T09:31:00.700Z,102063.50
2019-02-06T09:32:05.732Z,102060.72
2019-02-06T09:33:30.133Z,102060.67
2019-02-06T09:34:54.451Z,102062.72
2019-02-06T09:35:59.533Z,102065.27
2019-02-06T09:37:05.260Z,102062.84
2019-02-06T09:38:49.736Z,102072.86
2019-02-06T09:39:55.028Z,102066.66
2019-02-06T09:41:19.071Z,102067.44
2019-02-06T09:42:24.078Z,102066.94
2019-02-06T09:43:29.086Z,102063.75
2019-02-06T09:44:53.276Z,102059.20
2019-02-06T09:46:17.359Z,102060.84
2019-02-06T09:47:22.483Z,102058.46
2019-02-06T09:48:28.044Z,102058.32
2019-02-06T09:49:33.083Z,102057.41
2019-02-06T09:51:19.361Z,102057.63
2019-02-06T09:53:03.119Z,102055.41
2019-02-06T09:54:08.846Z,102061.34
2019-02-06T09:57:17.926Z,102065.34
2019-02-06T09:58:23.322Z,102065.97
2019-02-06T09:59:28.347Z,102063.67
2019-02-06T10:00:54.718Z,102059.57
2019-02-06T10:01:59.679Z,102059.73
2019-02-06T10:04:49.537Z,102064.27
2019-02-06T10:05:54.617Z,102060.51
2019-02-06T10:07:18.761Z,102059.53
2019-02-06T10:10:26.410Z,102059.09
2019-02-06T10:11:50.507Z,102059.86
2019-02-06T10:14:19.861Z,102063.63
2019-02-06T10:16:07.960Z,102052.96
2019-02-06T10:17:12.937Z,102061.69
2019-02-06T10:18:18.080Z,102050.02
2019-02-06T10:19:23.378Z,102056.16
2019-02-06T10:20:39.995Z,102057.43
2019-02-06T10:21:45.460Z,102055.03
2019-02-06T10:22:50.576Z,102065.45
2019-02-06T10:24:35.230Z,102055.66
2019-02-06T10:26:19.894Z,102060.39
2019-02-06T10:27:44.154Z,102057.94
2019-02-06T10:29:08.126Z,102064.30
2019-02-06T10:30:55.494Z,102050.56
2019-02-06T10:32:19.469Z,102054.38
2019-02-06T10:33:24.781Z,102049.86
2019-02-06T10:34:48.819Z,102054.22
2019-02-06T10:36:13.252Z,102051.58
2019-02-06T10:37:58.501Z,102051.97
2019-02-06T10:41:13.587Z,102040.47
2019-02-06T10:42:37.657Z,102038.44
2019-02-06T10:44:01.723Z,102042.65
2019-02-06T10:45:07.454Z,102036.80
2019-02-06T10:48:22.154Z,102040.95
2019-02-06T10:49:46.303Z,102030.12
2019-02-06T10:51:31.677Z,102027.07
2019-02-06T10:52:36.704Z,102034.18
2019-02-06T10:54:00.844Z,102026.61
2019-02-06T10:55:06.714Z,102018.31
2019-02-06T10:56:31.153Z,102020.00
2019-02-06T10:57:36.120Z,102019.08
2019-02-06T10:58:41.183Z,102012.30
2019-02-06T10:59:46.680Z,102018.45
2019-02-06T11:01:32.819Z,102018.36
2019-02-06T11:03:18.082Z,102017.43
2019-02-06T11:04:23.281Z,102005.37
2019-02-06T11:07:37.884Z,102000.94
2019-02-06T11:09:02.174Z,101994.79
2019-02-06T11:10:46.784Z,102000.08
2019-02-06T11:12:32.401Z,101989.50
2019-02-06T11:13:56.813Z,101990.30
2019-02-06T11:15:21.279Z,101990.13
2019-02-06T11:16:47.420Z,101989.66
2019-02-06T11:17:52.548Z,101993.53
2019-02-06T11:18:57.975Z,101989.97
2019-02-06T11:20:22.219Z,101982.39
2019-02-06T11:21:46.368Z,101990.20
2019-02-06T11:23:02.982Z,101980.38
2019-02-06T11:24:08.244Z,101980.67
2019-02-06T11:25:53.050Z,101983.16
2019-02-06T11:26:58.062Z,101983.45
2019-02-06T11:28:42.898Z,101980.28
2019-02-06T11:29:48.477Z,101978.33
2019-02-06T11:31:14.804Z,101980.70
2019-02-06T11:32:19.857Z,101976.56
2019-02-06T11:33:25.261Z,101973.75
2019-02-06T11:34:30.362Z,101973.62
2019-02-06T11:35:35.840Z,101970.41
2019-02-06T11:36:41.290Z,101965.41
2019-02-06T11:39:57.645Z,101968.04
2019-02-06T11:41:16.309Z,101969.95
2019-02-06T11:42:21.328Z,101969.02
2019-02-06T11:45:11.478Z,101962.87
2019-02-06T11:46:16.540Z,101959.19
2019-02-06T11:47:40.601Z,101955.51
2019-02-06T11:48:45.902Z,101956.77
2019-02-06T11:50:51.152Z,101951.36
2019-02-06T11:51:56.120Z,101953.02
2019-02-06T11:53:40.778Z,101950.73
2019-02-06T11:54:45.882Z,101948.87
2019-02-06T11:55:51.227Z,101946.12
2019-02-06T11:56:56.650Z,101952.27
2019-02-06T11:58:01.821Z,101942.07
2019-02-06T11:59:26.293Z,101941.90
2019-02-06T12:01:10.984Z,101939.64
2019-02-06T12:02:37.463Z,101940.40
2019-02-06T12:04:20.328Z,101933.38
2019-02-06T12:05:25.381Z,101936.42
2019-02-06T12:06:30.353Z,101928.09
2019-02-06T12:07:35.458Z,101932.45
2019-02-06T12:08:59.664Z,101930.66
2019-02-06T12:10:45.264Z,101933.20
2019-02-06T12:12:09.494Z,101924.19
2019-02-06T12:13:33.606Z,101924.19
2019-02-06T12:14:38.955Z,101923.15
2019-02-06T12:16:03.151Z,101921.18
2019-02-06T12:17:08.478Z,101924.30
2019-02-06T12:19:37.941Z,101915.70
2019-02-06T12:22:46.531Z,101917.24
2019-02-06T12:23:51.524Z,101913.02
2019-02-06T12:25:08.709Z,101911.87
2019-02-06T12:26:32.981Z,101905.17
2019-02-06T12:27:38.127Z,101901.02
2019-02-06T12:29:02.546Z,101907.92
2019-02-06T12:31:09.087Z,101903.88
2019-02-06T12:32:14.119Z,101901.98
2019-02-06T12:33:19.154Z,101898.78
2019-02-06T12:34:24.345Z,101889.33
2019-02-06T12:35:50.291Z,101882.88
2019-02-06T12:37:14.767Z,101882.33
2019-02-06T12:40:03.466Z,101884.42
2019-02-06T12:41:08.593Z,101870.98
2019-02-06T12:42:13.723Z,101876.28
2019-02-06T12:43:18.880Z,101874.88
2019-02-06T12:44:23.941Z,101871.19
2019-02-06T12:45:48.475Z,101868.81
2019-02-06T12:46:53.615Z,101869.67
2019-02-06T12:47:59.171Z,101872.61
2019-02-06T12:51:08.079Z,101862.88
2019-02-06T12:52:53.165Z,101862.88
2019-02-06T12:53:58.171Z,101859.45
2019-02-06T12:56:47.875Z,101853.30
2019-02-06T12:58:32.484Z,101846.39
2019-02-06T12:59:37.541Z,101848.85
2019-02-06T13:00:43.116Z,101845.06
2019-02-06T13:02:07.254Z,101840.12
2019-02-06T13:03:51.869Z,101836.45
2019-02-06T13:05:18.003Z,101835.39
2019-02-06T13:06:23.061Z,101834.27
2019-02-06T13:07:28.200Z,101830.64
2019-02-06T13:08:52.620Z,101833.67
2019-02-06T13:09:57.868Z,101823.27
2019-02-06T13:11:22.027Z,101819.36
2019-02-06T13:12:27.507Z,101823.80
2019-02-06T13:13:51.777Z,101808.86
2019-02-06T13:15:15.992Z,101808.86
2019-02-06T13:16:40.159Z,101810.84
2019-02-06T13:18:24.865Z,101803.91
2019-02-06T13:19:49.362Z,101797.85
2019-02-06T13:20:55.037Z,101797.85
2019-02-06T13:22:39.643Z,101812.05
2019-02-06T13:23:44.669Z,101807.52
2019-02-06T13:25:08.851Z,101807.52
2019-02-06T13:26:33.057Z,101804.28
2019-02-06T13:27:49.876Z,101812.44
2019-02-06T13:28:55.369Z,101813.56
2019-02-06T13:30:19.492Z,101791.55
2019-02-06T13:32:04.863Z,101798.30
2019-02-06T13:33:11.683Z,101808.59
2019-02-06T13:34:55.338Z,101797.23
2019-02-06T13:36:40.531Z,101808.59
2019-02-06T13:39:30.521Z,101794.37
2019-02-06T13:40:56.702Z,101803.26
2019-02-06T13:42:21.011Z,101806.30
2019-02-06T13:43:45.402Z,101801.55
2019-02-06T13:44:50.379Z,101800.60
2019-02-06T13:46:14.541Z,101797.01
2019-02-06T13:49:29.187Z,101800.52
2019-02-06T13:50:34.329Z,101794.91
2019-02-06T13:51:58.619Z,101794.05
2019-02-06T13:53:03.663Z,101791.90
2019-02-06T13:54:27.744Z,101781.56
2019-02-06T13:55:53.860Z,101785.73
2019-02-06T13:56:58.881Z,101780.77
2019-02-06T13:58:23.052Z,101782.48
2019-02-06T13:59:47.105Z,101779.36
2019-02-06T14:00:52.637Z,101778.77
2019-02-06T14:02:37.558Z,101768.53
2019-02-06T14:03:42.553Z,101768.53
2019-02-06T14:05:48.255Z,101766.48
2019-02-06T14:07:12.503Z,101769.20
2019-02-06T14:10:58.293Z,101752.79
2019-02-06T14:12:15.472Z,101747.36
2019-02-06T14:13:20.794Z,101743.64
2019-02-06T14:14:27.118Z,101738.72
2019-02-06T14:15:52.878Z,101739.83
2019-02-06T14:17:18.388Z,101737.09
2019-02-06T14:19:02.479Z,101737.09
2019-02-06T14:20:49.249Z,101733.19
2019-02-06T14:21:54.293Z,101735.97
2019-02-06T14:23:05.624Z,101728.68
2019-02-06T14:24:48.910Z,101726.50
2019-02-06T14:26:16.067Z,101727.44
2019-02-06T14:27:59.454Z,101723.28
2019-02-06T14:29:31.864Z,101727.77
2019-02-06T14:31:03.616Z,101724.34
2019-02-06T14:32:46.884Z,101727.59
2019-02-06T14:34:17.893Z,101723.31
2019-02-06T14:35:45.231Z,101727.00
2019-02-06T14:37:15.965Z,101725.31
2019-02-06T14:38:59.269Z,101721.89
2019-02-06T14:40:36.570Z,101728.53
2019-02-06T14:42:19.856Z,101729.86
2019-02-06T14:43:47.408Z,101725.88
2019-02-06T14:45:51.818Z,101720.95
2019-02-06T14:47:35.108Z,101723.98
2019-02-06T14:49:18.382Z,101715.55
2019-02-06T14:51:01.668Z,101725.66
2019-02-06T14:52:45.325Z,101723.02
2019-02-06T14:54:15.587Z,101717.70
2019-02-06T14:55:58.893Z,101718.56
2019-02-06T14:57:42.207Z,101714.48
2019-02-06T14:59:25.490Z,101719.03
2019-02-06T15:01:08.758Z,101715.55
2019-02-06T15:03:00.790Z,101705.22
2019-02-06T15:04:44.414Z,101709.38
2019-02-06T15:06:12.502Z,101713.37
2019-02-06T15:07:55.841Z,101705.88
2019-02-06T15:09:39.271Z,101706.34
2019-02-06T15:11:22.721Z,101702.36
2019-02-06T15:13:12.496Z,101702.83
2019-02-06T15:15:03.073Z,101702.95
2019-02-06T15:16:31.180Z,101691.01
2019-02-06T15:17:59.754Z,101690.50
2019-02-06T15:19:43.324Z,101705.61
2019-02-06T15:21:26.579Z,101691.48
2019-02-06T15:23:09.901Z,101696.20
2019-02-06T15:24:53.411Z,101698.77
2019-02-06T15:26:37.011Z,101680.73
2019-02-06T15:28:20.550Z,101680.73
2019-02-06T15:30:04.945Z,101681.77
2019-02-06T15:31:21.844Z,101678.26
2019-02-06T15:33:05.144Z,101676.93
2019-02-06T15:34:43.282Z,101672.21
2019-02-06T15:36:15.351Z,101674.48
2019-02-06T15:37:58.620Z,101667.46
2019-02-06T15:39:28.726Z,101656.48
2019-02-06T15:41:12.012Z,101656.48
2019-02-06T15:42:43.681Z,101644.75
2019-02-06T15:44:27.000Z,101652.50
2019-02-06T15:45:59.633Z,101651.91
2019-02-06T15:47:42.971Z,101642.45
2019-02-06T15:49:06.345Z,101646.34
2019-02-06T15:50:49.647Z,101647.41
2019-02-06T15:52:39.669Z,101640.00
2019-02-06T15:54:44.542Z,101643.60
2019-02-06T15:56:27.871Z,101638.62
2019-02-06T15:57:46.006Z,101644.78
2019-02-06T15:59:41.439Z,101644.41
2019-02-06T16:01:30.717Z,101645.34
2019-02-06T16:03:16.689Z,101645.46
2019-02-06T16:05:18.984Z,101651.63
2019-02-06T16:07:07.130Z,101645.55
2019-02-06T16:08:50.549Z,101641.57
2019-02-06T16:10:33.884Z,101642.90
2019-02-06T16:12:17.145Z,101631.28
2019-02-06T16:13:45.054Z,101642.55
2019-02-06T16:15:28.449Z,101638.95
2019-02-06T16:17:12.069Z,101641.39
2019-02-06T16:18:39.674Z,101632.10
2019-02-06T16:20:23.014Z,101633.64
2019-02-06T16:22:06.339Z,101633.64
2019-02-06T16:23:45.589Z,101632.81
2019-02-06T16:24:56.046Z,101632.81
2019-02-06T16:26:34.465Z,101635.09
2019-02-06T16:28:17.774Z,101634.14
2019-02-06T16:30:01.076Z,101640.86
2019-02-06T16:31:36.418Z,101626.95
2019-02-06T16:32:53.519Z,101626.95
2019-02-06T16:34:37.054Z,101631.78
2019-02-06T16:36:08.433Z,101617.95
2019-02-06T16:37:51.680Z,101626.47
2019-02-06T16:39:34.994Z,101626.86
2019-02-06T16:41:24.826Z,101626.86
2019-02-06T16:43:08.158Z,101624.20
2019-02-06T16:44:51.753Z,101632.17
2019-02-06T16:46:35.090Z,101629.86
2019-02-06T16:48:06.559Z,101634.31
2019-02-06T16:49:51.504Z,101614.36
2019-02-06T16:51:34.785Z,101623.70
2019-02-06T16:53:01.836Z,101623.70
2019-02-06T16:54:45.127Z,101618.04
2019-02-06T16:56:14.667Z,101626.95
2019-02-06T16:57:57.932Z,101619.92
2019-02-06T16:59:41.790Z,101619.92
2019-02-06T17:01:25.157Z,101623.91
2019-02-06T17:03:29.595Z,101623.91
2019-02-06T17:05:12.861Z,101628.39
2019-02-06T17:06:56.162Z,101610.97
2019-02-06T17:08:26.602Z,101608.78
2019-02-06T17:12:28.283Z,101612.03
2019-02-06T17:14:11.808Z,101614.03
2019-02-06T17:15:42.404Z,101614.03
2019-02-06T17:17:33.379Z,101609.67
2019-02-06T17:19:03.115Z,101613.64
2019-02-06T17:20:46.365Z,101608.34
2019-02-06T17:22:29.649Z,101601.06
2019-02-06T17:23:57.026Z,101612.91
2019-02-06T17:25:40.321Z,101607.22
2019-02-06T17:27:23.891Z,101603.83
2019-02-06T17:29:07.188Z,101597.02
2019-02-06T17:30:50.796Z,101597.02
2019-02-06T17:32:34.325Z,101595.78
2019-02-06T17:34:18.525Z,101608.64
2019-02-06T17:36:01.904Z,101608.64
2019-02-06T17:37:45.319Z,101610.94
2019-02-06T17:39:28.657Z,101604.77
2019-02-06T17:41:17.737Z,101617.09
2019-02-06T17:43:01.056Z,101607.05
2019-02-06T17:44:44.607Z,101605.33
2019-02-06T17:46:27.954Z,101599.76
2019-02-06T17:50:14.192Z,101601.20
2019-02-06T17:51:57.492Z,101600.44
2019-02-06T17:53:40.810Z,101597.52
2019-02-06T17:55:11.133Z,101600.28
2019-02-06T17:56:56.429Z,101602.94
2019-02-06T17:58:20.798Z,101601.23
2019-02-06T17:59:44.777Z,101608.33
2019-02-06T18:01:28.053Z,101605.20
2019-02-06T18:02:52.343Z,101609.57
2019-02-06T18:04:37.315Z,101609.57
2019-02-06T18:06:01.751Z,101608.59